createdAt,value
2023-02-15T00:01:36.026Z,88.18
2023-02-15T00:04:03.902Z,88.50
2023-02-15T00:06:30.661Z,88.63
2023-02-15T00:08:58.069Z,88.69
2023-02-15T00:11:43.788Z,88.92
2023-02-15T00:14:17.186Z,89.18
2023-02-15T00:16:45.852Z,88.80
2023-02-15T00:19:13.739Z,88.97
2023-02-15T00:21:41.081Z,88.83
2023-02-15T00:24:08.627Z,89.04
2023-02-15T00:26:36.869Z,89.16
2023-02-15T00:29:04.293Z,89.02
2023-02-15T00:31:32.574Z,88.91
2023-02-15T00:34:07.119Z,88.31
2023-02-15T00:36:34.237Z,88.60
2023-02-15T00:39:01.264Z,88.95
2023-02-15T00:41:29.025Z,88.76
2023-02-15T00:43:55.686Z,88.89
2023-02-15T00:46:22.743Z,89.00
2023-02-15T00:48:49.612Z,89.21
2023-02-15T00:51:16.771Z,88.89
2023-02-15T00:53:45.148Z,88.96
2023-02-15T00:56:12.145Z,89.38
2023-02-15T00:58:39.243Z,89.35
2023-02-15T01:01:07.910Z,89.33
2023-02-15T01:03:35.234Z,89.31
2023-02-15T01:06:02.804Z,89.35
2023-02-15T01:08:30.014Z,89.42
2023-02-15T01:10:56.641Z,89.06
2023-02-15T01:13:23.605Z,88.97
2023-02-15T01:15:54.199Z,89.04
2023-02-15T01:18:21.251Z,89.22
2023-02-15T01:20:49.322Z,88.97
2023-02-15T01:23:16.124Z,89.02
2023-02-15T01:25:43.405Z,88.70
2023-02-15T01:28:10.130Z,88.77
2023-02-15T01:30:36.610Z,88.54
2023-02-15T01:33:03.392Z,89.08
2023-02-15T01:35:30.509Z,88.75
2023-02-15T01:37:57.540Z,89.18
2023-02-15T01:40:24.615Z,89.41
2023-02-15T01:42:52.888Z,89.33
2023-02-15T01:45:22.887Z,88.85
2023-02-15T01:48:16.102Z,89.37
2023-02-15T01:50:45.367Z,89.12
2023-02-15T01:53:15.472Z,88.96
2023-02-15T01:55:46.092Z,89.31
2023-02-15T01:58:13.870Z,89.41
2023-02-15T02:00:41.264Z,89.22
2023-02-15T02:03:08.669Z,89.22
2023-02-15T02:05:36.037Z,89.43
2023-02-15T02:08:03.414Z,89.18
2023-02-15T02:10:31.828Z,89.02
2023-02-15T02:13:01.119Z,89.49
2023-02-15T02:15:34.760Z,89.67
2023-02-15T02:18:13.504Z,89.36
2023-02-15T02:20:52.537Z,90.18
2023-02-15T02:23:36.815Z,89.79
2023-02-15T02:26:09.677Z,90.18
2023-02-15T02:28:51.880Z,90.50
2023-02-15T02:31:39.061Z,90.35
2023-02-15T02:34:14.643Z,90.24
2023-02-15T02:36:41.794Z,90.65
2023-02-15T02:39:23.231Z,90.47
2023-02-15T02:41:53.368Z,90.91
2023-02-15T02:44:30.080Z,90.36
2023-02-15T02:47:12.877Z,90.49
2023-02-15T02:49:41.054Z,90.55
2023-02-15T02:52:28.349Z,90.62
2023-02-15T02:54:56.312Z,90.79
2023-02-15T02:57:24.279Z,90.53
2023-02-15T02:59:52.157Z,91.16
2023-02-15T03:02:24.565Z,90.44
2023-02-15T03:04:59.440Z,90.22
2023-02-15T03:07:29.673Z,90.58
2023-02-15T03:09:58.475Z,90.67
2023-02-15T03:12:30.792Z,90.78
2023-02-15T03:15:02.329Z,90.45
2023-02-15T03:17:31.990Z,90.35
2023-02-15T03:20:01.786Z,90.91
2023-02-15T03:22:36.590Z,90.79
2023-02-15T03:25:03.572Z,91.17
2023-02-15T03:27:47.836Z,91.22
2023-02-15T03:30:16.222Z,90.75
2023-02-15T03:32:44.703Z,91.18
2023-02-15T03:35:11.807Z,90.66
2023-02-15T03:37:42.785Z,90.92
2023-02-15T03:40:36.446Z,90.79
2023-02-15T03:43:12.028Z,90.71
2023-02-15T03:45:55.448Z,90.58
2023-02-15T03:48:33.986Z,90.77
2023-02-15T03:51:21.735Z,91.16
2023-02-15T03:53:49.980Z,91.07
2023-02-15T03:56:16.598Z,91.42
2023-02-15T03:59:02.640Z,91.14
2023-02-15T04:01:51.373Z,91.84
2023-02-15T04:04:25.497Z,92.21
2023-02-15T04:06:52.657Z,91.87
2023-02-15T04:09:38.533Z,91.84
2023-02-15T04:12:05.423Z,91.84
2023-02-15T04:14:50.882Z,92.24
2023-02-15T04:17:18.150Z,91.87
2023-02-15T04:20:03.951Z,92.15
2023-02-15T04:22:49.249Z,92.38
2023-02-15T04:25:16.239Z,91.80
2023-02-15T04:27:44.229Z,92.19
2023-02-15T04:30:12.130Z,92.54
2023-02-15T04:32:39.583Z,92.19
2023-02-15T04:35:06.984Z,92.28
2023-02-15T04:37:34.342Z,92.57
2023-02-15T04:40:01.094Z,92.41
2023-02-15T04:42:28.766Z,92.07
2023-02-15T04:44:55.454Z,92.37
2023-02-15T04:47:22.264Z,91.87
2023-02-15T04:49:49.129Z,92.10
2023-02-15T04:52:16.325Z,92.49
2023-02-15T04:54:43.481Z,92.11
2023-02-15T04:57:10.209Z,91.95
2023-02-15T04:59:36.934Z,92.11
2023-02-15T05:02:03.920Z,92.87
2023-02-15T05:04:30.690Z,92.79
2023-02-15T05:06:57.529Z,92.15
2023-02-15T05:09:25.121Z,92.09
2023-02-15T05:11:51.951Z,92.74
2023-02-15T05:14:18.645Z,92.48
2023-02-15T05:16:45.567Z,92.31
2023-02-15T05:19:12.625Z,92.74
2023-02-15T05:21:39.280Z,92.82
2023-02-15T05:24:26.143Z,91.99
2023-02-15T05:27:11.877Z,92.79
2023-02-15T05:29:38.607Z,92.58
2023-02-15T05:32:05.601Z,92.49
2023-02-15T05:34:32.762Z,92.74
2023-02-15T05:37:00.116Z,92.96
2023-02-15T05:39:27.402Z,92.77
2023-02-15T05:41:54.504Z,92.92
2023-02-15T05:44:21.197Z,92.79
2023-02-15T05:46:47.908Z,92.34
2023-02-15T05:49:14.856Z,92.63
2023-02-15T05:51:41.733Z,92.38
2023-02-15T05:54:08.640Z,92.84
2023-02-15T05:56:35.241Z,92.79
2023-02-15T05:59:02.153Z,92.37
2023-02-15T06:01:28.769Z,92.37
2023-02-15T06:03:56.660Z,92.51
2023-02-15T06:06:23.698Z,92.67
2023-02-15T06:08:50.690Z,92.85
2023-02-15T06:11:17.611Z,92.63
2023-02-15T06:13:44.836Z,92.51
2023-02-15T06:16:11.665Z,92.98
2023-02-15T06:18:39.604Z,92.49
2023-02-15T06:21:06.562Z,92.83
2023-02-15T06:23:33.134Z,92.44
2023-02-15T06:26:00.230Z,92.36
2023-02-15T06:28:27.979Z,92.22
2023-02-15T06:30:55.022Z,92.77
2023-02-15T06:33:22.364Z,92.30
2023-02-15T06:35:50.162Z,92.92
2023-02-15T06:38:17.027Z,92.39
2023-02-15T06:40:44.248Z,91.97
2023-02-15T06:43:11.051Z,92.04
2023-02-15T06:45:38.067Z,92.34
2023-02-15T06:48:07.804Z,92.60
2023-02-15T06:50:34.936Z,92.40
2023-02-15T06:53:02.097Z,92.40
2023-02-15T06:55:29.147Z,91.59
2023-02-15T06:57:56.187Z,91.89
2023-02-15T07:00:24.150Z,92.24
2023-02-15T07:02:58.871Z,91.99
2023-02-15T07:05:31.484Z,91.68
2023-02-15T07:07:58.846Z,91.21
2023-02-15T07:10:26.481Z,91.58
2023-02-15T07:12:53.747Z,91.61
2023-02-15T07:15:24.177Z,91.28
2023-02-15T07:17:51.197Z,91.54
2023-02-15T07:20:19.716Z,91.76
2023-02-15T07:22:46.967Z,91.30
2023-02-15T07:25:13.726Z,91.24
2023-02-15T07:27:40.902Z,91.16
2023-02-15T07:30:09.558Z,91.65
2023-02-15T07:32:36.782Z,91.10
2023-02-15T07:35:03.642Z,90.67
2023-02-15T07:37:30.628Z,90.68
2023-02-15T07:39:57.341Z,90.84
2023-02-15T07:42:24.054Z,91.21
2023-02-15T07:44:51.004Z,90.84
2023-02-15T07:47:17.637Z,90.25
2023-02-15T07:49:44.405Z,90.61
2023-02-15T07:52:11.459Z,90.60
2023-02-15T07:54:39.240Z,89.84
2023-02-15T07:57:06.750Z,89.92
2023-02-15T07:59:33.549Z,89.87
2023-02-15T08:02:00.256Z,90.36
2023-02-15T08:04:27.446Z,89.47
2023-02-15T08:06:55.456Z,89.14
2023-02-15T08:09:22.420Z,88.11
2023-02-15T08:11:49.193Z,88.41
2023-02-15T08:14:20.404Z,88.32
2023-02-15T08:16:49.923Z,87.83
2023-02-15T08:19:17.108Z,86.86
2023-02-15T08:21:48.625Z,87.52
2023-02-15T08:24:19.487Z,87.18
2023-02-15T08:26:47.659Z,86.90
2023-02-15T08:29:15.318Z,86.26
2023-02-15T08:31:42.632Z,85.97
2023-02-15T08:34:10.372Z,85.39
2023-02-15T08:36:37.996Z,84.92
2023-02-15T08:39:05.934Z,84.56
2023-02-15T08:41:33.859Z,85.11
2023-02-15T08:44:01.733Z,84.47
2023-02-15T08:46:30.214Z,83.59
2023-02-15T08:48:57.529Z,82.90
2023-02-15T08:51:25.383Z,83.73
2023-02-15T08:53:53.884Z,83.44
2023-02-15T08:56:25.169Z,82.72
2023-02-15T08:58:53.596Z,82.82
2023-02-15T09:01:21.851Z,82.77
2023-02-15T09:03:50.236Z,82.64
2023-02-15T09:06:18.120Z,82.01
2023-02-15T09:08:45.153Z,80.92
2023-02-15T09:11:13.670Z,80.92
2023-02-15T09:13:40.757Z,79.90
2023-02-15T09:16:09.350Z,79.98
2023-02-15T09:18:38.356Z,79.43
2023-02-15T09:21:14.557Z,78.98
2023-02-15T09:23:42.135Z,78.30
2023-02-15T09:26:10.991Z,77.72
2023-02-15T09:28:38.690Z,76.85
2023-02-15T09:31:18.638Z,77.40
2023-02-15T09:33:46.519Z,75.21
2023-02-15T09:36:16.104Z,74.34
2023-02-15T09:38:43.101Z,75.58
2023-02-15T09:41:10.137Z,75.59
2023-02-15T09:43:49.591Z,74.86
2023-02-15T09:46:16.781Z,75.43
2023-02-15T09:48:46.194Z,75.16
2023-02-15T09:51:12.885Z,74.11
2023-02-15T09:53:48.568Z,74.06
2023-02-15T09:56:24.608Z,72.95
2023-02-15T09:58:51.566Z,73.27
2023-02-15T10:01:21.725Z,72.94
2023-02-15T10:04:00.545Z,71.71
2023-02-15T10:06:34.430Z,72.87
2023-02-15T10:09:10.824Z,71.42
2023-02-15T10:11:41.897Z,71.80
2023-02-15T10:14:14.382Z,71.31
2023-02-15T10:16:41.775Z,71.39
2023-02-15T10:19:29.682Z,70.92
2023-02-15T10:21:56.817Z,69.68
2023-02-15T10:24:44.647Z,68.45
2023-02-15T10:27:14.865Z,68.73
2023-02-15T10:29:59.737Z,68.77
2023-02-15T10:32:30.132Z,67.62
2023-02-15T10:35:20.038Z,68.10
2023-02-15T10:37:56.052Z,68.12
2023-02-15T10:40:41.642Z,68.30
2023-02-15T10:43:10.010Z,69.63
2023-02-15T10:45:55.300Z,67.66
2023-02-15T10:48:40.942Z,68.35
2023-02-15T10:51:13.008Z,66.73
2023-02-15T10:53:49.613Z,67.10
2023-02-15T10:56:16.580Z,65.60
2023-02-15T10:58:58.537Z,65.98
2023-02-15T11:01:34.352Z,65.88
2023-02-15T11:04:17.516Z,66.45
2023-02-15T11:06:52.247Z,66.21
2023-02-15T11:09:21.703Z,66.05
2023-02-15T11:11:54.302Z,66.53
2023-02-15T11:14:41.104Z,64.48
2023-02-15T11:17:11.174Z,64.73
2023-02-15T11:19:58.386Z,63.64
2023-02-15T11:22:25.668Z,62.75
2023-02-15T11:24:52.601Z,62.77
2023-02-15T11:27:22.426Z,62.65
2023-02-15T11:29:49.431Z,62.51
2023-02-15T11:32:38.947Z,62.20
2023-02-15T11:35:12.841Z,62.93
2023-02-15T11:37:48.627Z,62.81
2023-02-15T11:40:34.275Z,63.21
2023-02-15T11:43:21.378Z,62.65
2023-02-15T11:45:48.398Z,62.42
2023-02-15T11:48:16.044Z,61.48
2023-02-15T11:50:44.273Z,61.03
2023-02-15T11:53:16.731Z,61.78
2023-02-15T11:55:45.043Z,61.56
2023-02-15T11:58:30.621Z,62.39
2023-02-15T12:01:21.068Z,62.32
2023-02-15T12:03:50.648Z,60.63
2023-02-15T12:06:17.940Z,60.58
2023-02-15T12:08:49.614Z,60.03
2023-02-15T12:11:19.287Z,59.60
2023-02-15T12:13:55.902Z,60.31
2023-02-15T12:16:22.915Z,61.30
2023-02-15T12:18:51.197Z,61.10
2023-02-15T12:21:32.595Z,60.43
2023-02-15T12:24:04.499Z,60.33
2023-02-15T12:26:33.237Z,60.40
2023-02-15T12:29:02.554Z,60.75
2023-02-15T12:31:33.627Z,60.44
2023-02-15T12:34:02.745Z,59.50
2023-02-15T12:36:33.968Z,58.86
2023-02-15T12:39:06.130Z,58.83
2023-02-15T12:41:33.250Z,57.65
2023-02-15T12:44:04.700Z,56.92
2023-02-15T12:46:37.846Z,57.35
2023-02-15T12:49:11.073Z,57.15
2023-02-15T12:51:49.542Z,56.01
2023-02-15T12:54:23.283Z,57.06
2023-02-15T12:56:50.818Z,56.69
2023-02-15T12:59:23.220Z,57.23
2023-02-15T13:01:52.298Z,56.69
2023-02-15T13:04:29.493Z,56.91
2023-02-15T13:06:58.803Z,57.71
2023-02-15T13:09:25.318Z,55.56
2023-02-15T13:11:52.199Z,54.22
2023-02-15T13:14:23.469Z,55.15
2023-02-15T13:16:52.010Z,55.90
2023-02-15T13:19:20.776Z,55.02
2023-02-15T13:21:49.404Z,55.29
2023-02-15T13:24:17.241Z,54.29
2023-02-15T13:26:46.104Z,55.06
2023-02-15T13:29:20.527Z,55.00
2023-02-15T13:31:47.562Z,53.08
2023-02-15T13:34:25.431Z,51.89
2023-02-15T13:37:11.034Z,53.37
2023-02-15T13:39:45.268Z,51.96
2023-02-15T13:42:14.886Z,51.67
2023-02-15T13:44:50.868Z,52.26
2023-02-15T13:47:45.874Z,52.32
2023-02-15T13:50:18.844Z,52.23
2023-02-15T13:52:56.567Z,52.75
2023-02-15T13:55:35.770Z,49.54
2023-02-15T13:58:02.644Z,49.03
2023-02-15T14:00:48.272Z,48.44
2023-02-15T14:03:20.914Z,48.73
2023-02-15T14:05:48.300Z,48.31
2023-02-15T14:08:25.460Z,47.40
2023-02-15T14:11:11.136Z,49.54
2023-02-15T14:13:38.397Z,49.18
2023-02-15T14:16:20.231Z,47.28
2023-02-15T14:19:00.892Z,46.06
2023-02-15T14:21:27.741Z,45.71
2023-02-15T14:23:54.816Z,45.52
2023-02-15T14:26:28.952Z,46.21
2023-02-15T14:28:59.448Z,46.28
2023-02-15T14:31:31.612Z,46.88
2023-02-15T14:33:59.788Z,46.96
2023-02-15T14:42:25.008Z,47.11
2023-02-15T14:44:57.550Z,47.05
2023-02-15T14:47:29.306Z,47.04
2023-02-15T14:49:56.294Z,48.30
2023-02-15T14:52:23.557Z,47.44
2023-02-15T14:54:50.416Z,47.97
2023-02-15T14:57:17.336Z,47.74
2023-02-15T15:03:23.682Z,48.17
2023-02-15T15:05:54.809Z,48.79
2023-02-15T15:08:26.566Z,49.55
2023-02-15T15:10:53.525Z,50.32
2023-02-15T15:13:32.851Z,48.46
2023-02-15T15:16:22.650Z,49.55
2023-02-15T15:18:49.762Z,49.51
2023-02-15T15:21:34.843Z,49.20
2023-02-15T15:24:01.982Z,48.32
2023-02-15T15:26:30.557Z,48.47
2023-02-15T15:29:00.356Z,48.10
2023-02-15T15:31:45.448Z,48.65
2023-02-15T15:34:18.790Z,48.69
2023-02-15T15:37:05.941Z,48.05
2023-02-15T15:39:32.799Z,49.01
2023-02-15T15:42:13.033Z,49.68
2023-02-15T15:44:52.516Z,50.38
2023-02-15T15:47:22.838Z,50.97
2023-02-15T15:49:49.578Z,52.03
2023-02-15T15:52:18.042Z,52.42
2023-02-15T15:54:49.362Z,52.54
2023-02-15T15:57:24.027Z,52.73
2023-02-15T15:59:50.884Z,53.13
2023-02-15T16:02:18.339Z,53.71
2023-02-15T16:04:45.394Z,53.58
2023-02-15T16:07:18.589Z,54.15
2023-02-15T16:10:01.675Z,54.63
2023-02-15T16:12:30.296Z,54.89
2023-02-15T16:14:57.661Z,55.26
2023-02-15T16:17:24.666Z,55.54
2023-02-15T16:19:53.587Z,55.61
2023-02-15T16:22:22.624Z,56.35
2023-02-15T16:25:10.445Z,57.07
2023-02-15T16:27:42.872Z,57.35
2023-02-15T16:30:20.180Z,57.64
2023-02-15T16:32:47.505Z,57.43
2023-02-15T16:35:17.113Z,58.20
2023-02-15T16:37:44.259Z,58.20
2023-02-15T16:40:28.625Z,58.71
2023-02-15T16:42:56.870Z,59.13
2023-02-15T16:45:26.931Z,59.28
2023-02-15T16:47:57.477Z,59.68
2023-02-15T16:50:27.970Z,60.05
2023-02-15T16:52:55.147Z,60.23
2023-02-15T16:55:25.166Z,60.42
2023-02-15T16:57:54.875Z,60.51
2023-02-15T17:00:25.985Z,60.86
2023-02-15T17:03:00.190Z,60.82
2023-02-15T17:05:32.098Z,61.16
2023-02-15T17:08:08.008Z,61.41
2023-02-15T17:10:37.552Z,61.74
2023-02-15T17:13:10.609Z,61.64
2023-02-15T17:15:42.609Z,62.11
2023-02-15T17:18:20.503Z,62.07
2023-02-15T17:20:48.919Z,62.37
2023-02-15T17:23:31.480Z,62.63
2023-02-15T17:26:12.113Z,62.83
2023-02-15T17:28:44.842Z,63.10
2023-02-15T17:31:15.075Z,63.82
2023-02-15T17:33:43.059Z,63.93
2023-02-15T17:36:16.777Z,64.42
2023-02-15T17:38:59.527Z,64.26
2023-02-15T17:41:38.118Z,64.63
2023-02-15T17:44:05.662Z,64.70
2023-02-15T17:46:37.007Z,64.63
2023-02-15T17:49:09.762Z,65.07
2023-02-15T17:51:38.550Z,65.29
2023-02-15T17:54:24.663Z,65.71
2023-02-15T17:56:51.611Z,66.03
2023-02-15T17:59:18.287Z,66.19
2023-02-15T18:02:05.385Z,66.39
2023-02-15T18:04:52.537Z,66.71
2023-02-15T18:07:38.471Z,66.81
2023-02-15T18:10:50.681Z,66.83
2023-02-15T18:13:17.748Z,67.15
2023-02-15T18:15:44.836Z,67.36
2023-02-15T18:18:27.815Z,67.79
2023-02-15T18:20:55.430Z,68.08
2023-02-15T18:23:22.356Z,68.11
2023-02-15T18:25:49.177Z,68.20
2023-02-15T18:28:16.156Z,68.07
2023-02-15T18:30:43.612Z,68.29
2023-02-15T18:33:24.962Z,68.81
2023-02-15T18:35:53.452Z,68.86
2023-02-15T18:38:20.672Z,68.75
2023-02-15T18:40:47.799Z,69.56
2023-02-15T18:43:15.147Z,69.60
2023-02-15T18:45:42.100Z,69.18
2023-02-15T18:48:10.066Z,69.42
2023-02-15T18:50:38.467Z,69.42
2023-02-15T18:53:06.808Z,69.53
2023-02-15T18:55:38.074Z,69.69
2023-02-15T18:58:05.282Z,69.75
2023-02-15T19:00:41.176Z,70.64
2023-02-15T19:03:11.720Z,70.17
2023-02-15T19:05:38.522Z,71.00
2023-02-15T19:08:05.601Z,70.65
2023-02-15T19:10:33.748Z,71.16
2023-02-15T19:13:03.231Z,70.90
2023-02-15T19:15:30.813Z,71.36
2023-02-15T19:17:57.509Z,71.52
2023-02-15T19:20:30.342Z,71.40
2023-02-15T19:22:58.431Z,71.21
2023-02-15T19:25:26.272Z,71.22
2023-02-15T19:27:54.487Z,71.80
2023-02-15T19:30:24.721Z,72.28
2023-02-15T19:32:52.768Z,72.65
2023-02-15T19:35:22.372Z,72.58
2023-02-15T19:37:50.564Z,72.88
2023-02-15T19:40:22.599Z,73.10
2023-02-15T19:42:50.275Z,72.89
2023-02-15T19:45:18.598Z,72.97
2023-02-15T19:47:49.376Z,73.46
2023-02-15T19:50:17.449Z,73.42
2023-02-15T19:52:44.766Z,73.27
2023-02-15T19:55:22.556Z,73.51
2023-02-15T19:57:53.242Z,74.11
2023-02-15T20:00:25.834Z,74.04
2023-02-15T20:02:53.223Z,73.75
2023-02-15T20:05:23.027Z,73.90
2023-02-15T20:07:51.184Z,74.41
2023-02-15T20:10:19.417Z,74.53
2023-02-15T20:12:47.573Z,74.51
2023-02-15T20:15:19.166Z,74.83
2023-02-15T20:17:49.651Z,75.15
2023-02-15T20:20:18.430Z,74.99
2023-02-15T20:22:51.542Z,75.17
2023-02-15T20:25:21.313Z,75.83
2023-02-15T20:27:50.955Z,75.78
2023-02-15T20:30:21.762Z,75.90
2023-02-15T20:32:49.413Z,75.70
2023-02-15T20:35:18.320Z,75.52
2023-02-15T20:37:52.779Z,75.94
2023-02-15T20:40:26.954Z,75.81
2023-02-15T20:42:54.163Z,76.63
2023-02-15T20:45:41.188Z,76.67
2023-02-15T20:48:08.257Z,76.69
2023-02-15T20:50:35.740Z,77.29
2023-02-15T20:53:02.907Z,77.38
2023-02-15T20:55:31.429Z,76.65
2023-02-15T20:58:00.766Z,76.72
2023-02-15T21:00:36.029Z,77.19
2023-02-15T21:03:10.911Z,76.91
2023-02-15T21:05:37.792Z,77.68
2023-02-15T21:08:15.477Z,77.01
2023-02-15T21:10:45.432Z,77.24
2023-02-15T21:13:19.730Z,77.82
2023-02-15T21:15:46.950Z,77.72
2023-02-15T21:18:17.027Z,77.59
2023-02-15T21:20:47.708Z,77.54
2023-02-15T21:23:15.951Z,78.00
2023-02-15T21:25:44.647Z,78.10
2023-02-15T21:28:22.508Z,78.33
2023-02-15T21:30:50.440Z,77.67
2023-02-15T21:33:17.347Z,77.61
2023-02-15T21:35:50.388Z,77.94
2023-02-15T21:38:21.103Z,77.70
2023-02-15T21:40:49.272Z,77.58
2023-02-15T21:43:43.803Z,77.77
2023-02-15T21:46:33.824Z,77.73
2023-02-15T21:49:03.936Z,78.60
2023-02-15T21:51:50.152Z,78.84
2023-02-15T21:54:18.807Z,79.00
2023-02-15T21:56:47.776Z,78.56
2023-02-15T21:59:19.466Z,79.09
2023-02-15T22:01:50.486Z,79.24
2023-02-15T22:04:25.000Z,79.57
2023-02-15T22:06:53.554Z,79.51
2023-02-15T22:09:25.158Z,80.29
2023-02-15T22:11:53.859Z,79.80
2023-02-15T22:14:24.055Z,80.82
2023-02-15T22:16:51.070Z,81.11
2023-02-15T22:19:18.356Z,80.54
2023-02-15T22:21:45.298Z,81.03
2023-02-15T22:24:15.993Z,81.23
2023-02-15T22:26:43.606Z,80.80
2023-02-15T22:29:16.055Z,80.97
2023-02-15T22:31:43.385Z,81.18
2023-02-15T22:34:27.028Z,80.77
2023-02-15T22:36:54.719Z,81.25
2023-02-15T22:39:22.639Z,80.95
2023-02-15T22:41:49.529Z,80.78
2023-02-15T22:44:18.547Z,81.50
2023-02-15T22:46:45.149Z,81.73
2023-02-15T22:49:14.167Z,81.66
2023-02-15T22:51:41.108Z,81.35
2023-02-15T22:54:08.444Z,81.98
2023-02-15T22:56:40.078Z,81.66
2023-02-15T22:59:08.533Z,81.94
2023-02-15T23:01:36.797Z,82.18
2023-02-15T23:04:04.358Z,81.87
2023-02-15T23:06:32.076Z,82.64
2023-02-15T23:09:00.806Z,82.43
2023-02-15T23:11:28.185Z,82.68
2023-02-15T23:13:55.168Z,82.17
2023-02-15T23:16:24.896Z,82.01
2023-02-15T23:18:52.247Z,82.81
2023-02-15T23:21:23.760Z,82.38
2023-02-15T23:23:52.646Z,82.97
2023-02-15T23:26:21.488Z,82.97
2023-02-15T23:28:48.784Z,82.75
2023-02-15T23:31:19.246Z,82.69
2023-02-15T23:33:47.026Z,83.60
2023-02-15T23:36:24.408Z,82.84
2023-02-15T23:38:53.948Z,83.04
2023-02-15T23:41:23.022Z,83.61
2023-02-15T23:43:52.426Z,83.79
2023-02-15T23:46:24.578Z,83.10
2023-02-15T23:48:53.011Z,83.23
2023-02-15T23:51:21.005Z,83.68
2023-02-15T23:53:48.052Z,83.23
2023-02-15T23:56:15.631Z,83.06
2023-02-15T23:58:44.047Z,82.99
